createdAt,value
2023-01-15T00:00:17.036Z,12.50
2023-01-15T00:04:05.871Z,13.40
2023-01-15T00:07:32.981Z,16.40
2023-01-15T00:11:00.077Z,16.90
2023-01-15T00:14:26.572Z,15.10
2023-01-15T00:17:54.849Z,10.10
2023-01-15T00:21:28.298Z,10.30
2023-01-15T00:25:13.337Z,9.50
2023-01-15T00:28:40.062Z,9.80
2023-01-15T00:32:11.596Z,9.90
2023-01-15T00:35:41.655Z,10.20
2023-01-15T00:39:08.928Z,12.00
2023-01-15T00:42:36.697Z,11.40
2023-01-15T00:46:05.403Z,11.20
2023-01-15T00:49:32.686Z,10.60
2023-01-15T00:53:01.091Z,8.30
2023-01-15T00:56:28.506Z,11.70
2023-01-15T00:59:55.438Z,10.30
2023-01-15T01:03:25.150Z,9.00
2023-01-15T01:06:52.940Z,15.40
2023-01-15T01:10:22.331Z,9.50
2023-01-15T01:13:50.388Z,7.70
2023-01-15T01:17:18.201Z,10.50
2023-01-15T01:20:45.672Z,9.80
2023-01-15T01:24:15.109Z,6.40
2023-01-15T01:27:43.927Z,7.50
2023-01-15T01:31:11.255Z,10.20
2023-01-15T01:34:38.303Z,7.90
2023-01-15T01:38:06.077Z,9.30
2023-01-15T01:41:34.221Z,10.70
2023-01-15T01:45:16.503Z,10.00
2023-01-15T01:48:46.557Z,7.40
2023-01-15T01:52:25.499Z,6.90
2023-01-15T01:55:55.363Z,6.20
2023-01-15T01:59:24.929Z,4.70
2023-01-15T02:02:57.111Z,7.00
2023-01-15T02:06:27.371Z,7.30
2023-01-15T02:09:56.510Z,8.10
2023-01-15T02:13:35.796Z,8.30
2023-01-15T02:17:16.638Z,6.20
2023-01-15T02:20:51.263Z,8.40
2023-01-15T02:24:26.747Z,7.30
2023-01-15T02:28:01.875Z,8.10
2023-01-15T02:31:37.899Z,11.40
2023-01-15T02:35:13.981Z,6.50
2023-01-15T02:38:47.117Z,7.70
2023-01-15T02:45:50.715Z,5.10
2023-01-15T02:49:23.875Z,4.40
2023-01-15T02:52:56.117Z,6.00
2023-01-15T02:56:26.390Z,6.00
2023-01-15T03:00:00.102Z,8.50
2023-01-15T03:03:37.609Z,6.10
2023-01-15T03:07:11.537Z,7.60
2023-01-15T03:10:48.082Z,6.60
2023-01-15T03:14:27.166Z,8.50
2023-01-15T03:18:06.409Z,7.40
2023-01-15T03:21:40.060Z,6.30
2023-01-15T03:25:13.838Z,4.80
2023-01-15T03:28:48.566Z,7.30
2023-01-15T03:32:16.721Z,7.20
2023-01-15T03:35:49.991Z,7.00
2023-01-15T03:39:36.929Z,5.40
2023-01-15T03:43:37.348Z,4.90
2023-01-15T03:47:23.074Z,5.80
2023-01-15T03:50:54.655Z,4.70
2023-01-15T03:54:28.417Z,7.80
2023-01-15T03:58:06.962Z,4.10
2023-01-15T04:01:45.814Z,5.70
2023-01-15T04:05:13.053Z,6.70
2023-01-15T04:08:44.001Z,6.10
2023-01-15T04:12:11.998Z,4.00
2023-01-15T04:15:43.060Z,4.00
2023-01-15T04:19:10.537Z,3.40
2023-01-15T04:26:10.467Z,3.50
2023-01-15T04:29:38.430Z,4.60
2023-01-15T04:33:07.416Z,7.00
2023-01-15T04:36:36.807Z,4.10
2023-01-15T04:40:07.545Z,5.10
2023-01-15T04:43:57.940Z,3.30
2023-01-15T04:47:24.764Z,5.80
2023-01-15T04:50:54.521Z,3.20
2023-01-15T04:54:25.112Z,2.60
2023-01-15T04:57:53.855Z,5.80
2023-01-15T05:01:23.102Z,3.60
2023-01-15T05:04:51.755Z,6.00
2023-01-15T05:08:19.450Z,3.30
2023-01-15T05:11:49.418Z,6.90
2023-01-15T05:15:16.806Z,3.20
2023-01-15T05:18:44.715Z,2.80
2023-01-15T05:22:11.889Z,4.60
2023-01-15T05:25:41.182Z,3.40
2023-01-15T05:29:13.442Z,6.60
2023-01-15T05:32:43.362Z,3.70
2023-01-15T05:36:16.693Z,3.90
2023-01-15T05:39:46.085Z,5.50
2023-01-15T05:43:14.619Z,4.80
2023-01-15T05:46:45.075Z,4.40
2023-01-15T05:50:15.563Z,4.30
2023-01-15T05:53:46.598Z,3.10
2023-01-15T05:57:15.928Z,4.30
2023-01-15T06:00:43.649Z,6.20
2023-01-15T06:04:15.139Z,3.90
2023-01-15T06:07:42.621Z,3.90
2023-01-15T06:11:13.162Z,6.00
2023-01-15T06:14:41.152Z,5.90
2023-01-15T06:18:12.255Z,6.20
2023-01-15T06:21:47.402Z,7.00
2023-01-15T06:25:17.219Z,6.80
2023-01-15T06:28:46.589Z,4.50
2023-01-15T06:32:16.145Z,4.80
2023-01-15T06:35:44.420Z,3.60
2023-01-15T06:39:12.868Z,5.30
2023-01-15T06:42:57.515Z,9.70
2023-01-15T06:46:44.968Z,4.70
2023-01-15T06:50:16.696Z,6.50
2023-01-15T06:53:49.407Z,7.60
2023-01-15T06:57:19.076Z,7.70
2023-01-15T07:00:53.922Z,8.20
2023-01-15T07:04:21.378Z,10.50
2023-01-15T07:07:49.783Z,6.40
2023-01-15T07:11:18.192Z,15.50
2023-01-15T07:14:45.351Z,7.50
2023-01-15T07:18:13.867Z,5.90
2023-01-15T07:21:40.676Z,6.70
2023-01-15T07:25:09.718Z,7.20
2023-01-15T07:28:36.404Z,6.70
2023-01-15T07:32:04.027Z,5.20
2023-01-15T07:35:31.537Z,5.40
2023-01-15T07:39:04.911Z,3.00
2023-01-15T07:42:49.191Z,3.80
2023-01-15T07:46:40.197Z,4.00
2023-01-15T07:50:08.705Z,4.00
2023-01-15T07:53:36.799Z,3.20
2023-01-15T07:57:04.228Z,3.60
2023-01-15T08:00:31.250Z,2.00
2023-01-15T08:03:58.116Z,3.50
2023-01-15T08:07:27.345Z,3.40
2023-01-15T08:11:11.909Z,2.90
2023-01-15T08:14:57.713Z,4.90
2023-01-15T08:18:25.303Z,2.00
2023-01-15T08:21:52.438Z,2.20
2023-01-15T08:25:21.384Z,3.90
2023-01-15T08:28:50.032Z,3.40
2023-01-15T08:32:17.778Z,2.30
2023-01-15T08:35:45.932Z,3.10
2023-01-15T08:39:13.648Z,2.30
2023-01-15T08:42:41.627Z,4.50
2023-01-15T08:46:09.146Z,3.60
2023-01-15T08:49:36.149Z,2.50
2023-01-15T08:53:02.784Z,2.90
2023-01-15T08:56:30.891Z,3.10
2023-01-15T08:59:57.715Z,3.70
2023-01-15T09:03:24.661Z,4.40
2023-01-15T09:06:51.654Z,3.80
2023-01-15T09:10:19.045Z,3.00
2023-01-15T09:13:47.084Z,2.20
2023-01-15T09:17:18.454Z,2.10
2023-01-15T09:20:45.402Z,2.40
2023-01-15T09:24:12.222Z,4.60
2023-01-15T09:27:39.234Z,2.90
2023-01-15T09:31:08.439Z,2.10
2023-01-15T09:34:35.459Z,3.00
2023-01-15T09:38:02.066Z,2.90
2023-01-15T09:41:51.935Z,3.60
2023-01-15T09:45:24.311Z,3.10
2023-01-15T09:49:04.527Z,2.00
2023-01-15T09:52:49.930Z,2.80
2023-01-15T09:56:24.428Z,2.10
2023-01-15T09:59:55.028Z,3.20
2023-01-15T10:03:31.579Z,3.40
2023-01-15T10:07:07.816Z,3.20
2023-01-15T10:10:42.559Z,1.90
2023-01-15T10:14:16.758Z,0.90
2023-01-15T10:17:47.683Z,2.10
2023-01-15T10:21:29.893Z,2.90
2023-01-15T10:24:59.688Z,3.00
2023-01-15T10:28:30.698Z,4.10
2023-01-15T10:32:03.095Z,3.60
2023-01-15T10:35:37.301Z,5.10
2023-01-15T10:39:16.881Z,4.20
2023-01-15T10:42:52.576Z,5.30
2023-01-15T10:46:23.779Z,5.10
2023-01-15T10:49:52.261Z,4.70
2023-01-15T10:53:29.047Z,9.40
2023-01-15T10:57:02.442Z,6.50
2023-01-15T11:00:29.123Z,5.50
2023-01-15T11:03:57.062Z,12.80
2023-01-15T11:07:29.287Z,22.20
2023-01-15T11:10:56.640Z,16.70
2023-01-15T11:14:59.065Z,10.40
2023-01-15T11:18:48.184Z,8.80
2023-01-15T11:22:19.585Z,12.20
2023-01-15T11:25:55.593Z,7.10
2023-01-15T11:29:36.941Z,6.30
2023-01-15T11:33:05.348Z,7.30
2023-01-15T11:36:33.131Z,6.50
2023-01-15T11:40:07.006Z,8.20
2023-01-15T11:43:52.138Z,9.10
2023-01-15T11:47:39.764Z,8.70
2023-01-15T11:51:10.520Z,9.00
2023-01-15T11:54:42.906Z,12.80
2023-01-15T11:58:11.696Z,11.30
2023-01-15T12:01:42.436Z,13.00
2023-01-15T12:05:17.000Z,5.10
2023-01-15T12:08:52.017Z,8.80
2023-01-15T12:12:30.582Z,8.70
2023-01-15T12:16:04.719Z,5.80
2023-01-15T12:19:40.923Z,5.20
2023-01-15T12:23:28.005Z,5.30
2023-01-15T12:27:07.662Z,11.10
2023-01-15T12:30:43.927Z,14.70
2023-01-15T12:34:19.460Z,15.30
2023-01-15T12:37:49.943Z,8.80
2023-01-15T12:41:19.156Z,13.10
2023-01-15T12:45:04.966Z,11.30
2023-01-15T12:48:38.568Z,15.70
2023-01-15T12:55:37.094Z,16.10
2023-01-15T12:59:11.966Z,16.70
2023-01-15T13:02:45.059Z,13.10
2023-01-15T13:06:14.539Z,12.40
2023-01-15T13:09:45.981Z,8.10
2023-01-15T13:13:23.144Z,11.20
2023-01-15T13:16:59.055Z,5.80
2023-01-15T13:20:44.027Z,4.90
2023-01-15T13:24:29.194Z,4.50
2023-01-15T13:28:12.338Z,8.40
2023-01-15T13:32:02.899Z,7.90
2023-01-15T13:35:38.107Z,5.70
2023-01-15T13:39:09.032Z,6.20
2023-01-15T13:42:41.387Z,10.20
2023-01-15T13:46:14.710Z,10.80
2023-01-15T13:49:48.356Z,5.00
2023-01-15T13:53:32.105Z,31.20
2023-01-15T14:00:39.076Z,5.60
2023-01-15T14:04:16.556Z,5.30
2023-01-15T14:07:42.823Z,3.90
2023-01-15T14:11:38.654Z,5.50
2023-01-15T14:15:28.305Z,6.10
2023-01-15T14:19:22.732Z,4.70
2023-01-15T14:23:05.657Z,9.50
2023-01-15T14:26:44.117Z,6.90
2023-01-15T14:30:36.610Z,6.50
2023-01-15T14:34:29.746Z,8.40
2023-01-15T14:37:59.757Z,10.40
2023-01-15T14:41:57.077Z,9.30
2023-01-15T14:45:29.718Z,11.20
2023-01-15T14:49:01.972Z,11.20
2023-01-15T14:52:29.146Z,11.60
2023-01-15T14:56:01.176Z,13.20
2023-01-15T14:59:34.510Z,12.20
2023-01-15T15:03:04.685Z,13.50
2023-01-15T15:06:32.638Z,14.50
2023-01-15T15:10:05.439Z,10.80
2023-01-15T15:13:37.406Z,11.90
2023-01-15T15:17:08.918Z,23.10
2023-01-15T15:20:44.960Z,11.60
2023-01-15T15:24:18.521Z,15.00
2023-01-15T15:27:45.301Z,19.90
2023-01-15T15:31:13.635Z,23.30
2023-01-15T15:34:43.685Z,40.60
2023-01-15T15:38:17.120Z,27.50
2023-01-15T15:42:04.656Z,16.90
2023-01-15T15:45:50.474Z,10.20
2023-01-15T15:49:17.915Z,8.90
2023-01-15T15:52:47.159Z,10.70
2023-01-15T15:56:15.338Z,11.50
2023-01-15T15:59:46.318Z,7.00
2023-01-15T16:03:23.992Z,9.00
2023-01-15T16:06:55.158Z,11.60
2023-01-15T16:10:26.608Z,13.20
2023-01-15T16:13:57.658Z,16.40
2023-01-15T16:17:29.259Z,9.30
2023-01-15T16:20:59.305Z,12.90
2023-01-15T16:24:30.771Z,10.70
2023-01-15T16:28:03.783Z,8.90
2023-01-15T16:31:37.739Z,8.70
2023-01-15T16:35:19.731Z,11.50
2023-01-15T16:38:51.893Z,13.30
2023-01-15T16:42:31.947Z,11.90
2023-01-15T16:46:09.550Z,10.10
2023-01-15T16:49:41.375Z,10.80
2023-01-15T16:53:29.927Z,11.80
2023-01-15T16:56:59.403Z,11.30
2023-01-15T17:00:33.499Z,14.00
2023-01-15T17:04:05.831Z,9.80
2023-01-15T17:07:38.919Z,12.40
2023-01-15T17:11:17.959Z,12.00
2023-01-15T17:14:45.273Z,10.20
2023-01-15T17:18:32.611Z,13.50
2023-01-15T17:22:00.582Z,15.00
2023-01-15T17:25:33.749Z,11.80
2023-01-15T17:29:00.335Z,12.60
2023-01-15T17:32:33.069Z,11.90
2023-01-15T17:36:01.487Z,13.20
2023-01-15T17:39:28.620Z,10.80
2023-01-15T17:42:59.442Z,12.50
2023-01-15T17:46:26.625Z,13.20
2023-01-15T17:49:53.470Z,13.60
2023-01-15T17:53:19.980Z,10.70
2023-01-15T17:57:05.162Z,10.00
2023-01-15T18:00:49.636Z,9.40
2023-01-15T18:04:43.264Z,14.70
2023-01-15T18:08:12.729Z,13.00
2023-01-15T18:11:39.467Z,13.00
2023-01-15T18:15:08.422Z,9.40
2023-01-15T18:18:34.927Z,11.80
2023-01-15T18:22:02.903Z,12.40
2023-01-15T18:25:29.994Z,11.30
2023-01-15T18:28:59.230Z,10.40
2023-01-15T18:32:28.464Z,14.00
2023-01-15T18:36:07.247Z,10.90
2023-01-15T18:39:35.860Z,11.20
2023-01-15T18:43:20.294Z,11.60
2023-01-15T18:46:55.675Z,10.10
2023-01-15T18:50:22.640Z,12.70
2023-01-15T18:53:51.505Z,14.00
2023-01-15T18:57:18.898Z,11.70
2023-01-15T19:00:46.181Z,7.60
2023-01-15T19:04:12.695Z,13.00
2023-01-15T19:07:40.241Z,12.10
2023-01-15T19:11:15.016Z,11.10
2023-01-15T19:15:00.211Z,10.10
2023-01-15T19:18:53.552Z,12.40
2023-01-15T19:22:38.284Z,10.70
2023-01-15T19:26:07.833Z,10.70
2023-01-15T19:29:38.833Z,10.20
2023-01-15T19:33:12.527Z,11.70
2023-01-15T19:36:47.756Z,11.90
2023-01-15T19:40:30.816Z,12.70
2023-01-15T19:44:20.567Z,11.00
2023-01-15T19:48:07.241Z,11.20
2023-01-15T19:51:52.158Z,11.00
2023-01-15T19:55:21.472Z,17.30
2023-01-15T19:58:57.960Z,9.80
2023-01-15T20:02:27.023Z,13.70
2023-01-15T20:05:58.420Z,10.00
2023-01-15T20:09:28.086Z,15.50
2023-01-15T20:13:13.675Z,9.60
2023-01-15T20:16:41.088Z,10.60
2023-01-15T20:20:14.653Z,11.70
2023-01-15T20:23:43.956Z,9.50
2023-01-15T20:27:12.801Z,13.10
2023-01-15T20:30:46.390Z,9.10
2023-01-15T20:34:18.834Z,11.90
2023-01-15T20:37:48.109Z,7.10
2023-01-15T20:41:35.490Z,8.50
2023-01-15T20:45:08.938Z,8.50
2023-01-15T20:48:58.396Z,7.00
2023-01-15T20:52:44.669Z,6.40
2023-01-15T20:56:19.585Z,5.90
2023-01-15T20:59:52.126Z,8.50
2023-01-15T21:03:20.412Z,16.00
2023-01-15T21:06:52.143Z,7.80
2023-01-15T21:10:19.815Z,9.30
2023-01-15T21:13:49.840Z,7.40
2023-01-15T21:17:18.243Z,8.40
2023-01-15T21:20:52.015Z,6.40
2023-01-15T21:24:19.940Z,10.50
2023-01-15T21:27:47.053Z,8.70
2023-01-15T21:31:15.497Z,8.70
2023-01-15T21:34:43.140Z,10.10
2023-01-15T21:38:11.316Z,6.90
2023-01-15T21:41:55.533Z,5.60
2023-01-15T21:45:30.637Z,9.30
2023-01-15T21:48:58.462Z,8.10
2023-01-15T21:52:25.534Z,12.30
2023-01-15T21:55:55.408Z,11.40
2023-01-15T21:59:23.790Z,10.40
2023-01-15T22:02:51.168Z,8.60
2023-01-15T22:06:18.048Z,7.80
2023-01-15T22:09:45.813Z,9.10
2023-01-15T22:13:12.588Z,6.70
2023-01-15T22:16:39.662Z,5.80
2023-01-15T22:20:08.380Z,6.10
2023-01-15T22:23:36.398Z,8.80
2023-01-15T22:27:07.197Z,5.80
2023-01-15T22:30:46.550Z,6.10
2023-01-15T22:34:17.578Z,5.30
2023-01-15T22:37:44.852Z,6.50
2023-01-15T22:41:11.739Z,7.50
2023-01-15T22:44:40.460Z,7.80
2023-01-15T22:48:09.241Z,6.60
2023-01-15T22:51:36.896Z,6.20
2023-01-15T22:55:03.556Z,7.60
2023-01-15T22:58:31.820Z,8.20
2023-01-15T23:01:58.845Z,6.30
2023-01-15T23:05:29.403Z,9.80
2023-01-15T23:09:01.409Z,14.10
2023-01-15T23:12:32.842Z,10.50
2023-01-15T23:16:03.978Z,7.80
2023-01-15T23:19:34.165Z,6.70
2023-01-15T23:23:01.182Z,7.40
2023-01-15T23:26:31.727Z,8.30
2023-01-15T23:29:59.397Z,9.60
2023-01-15T23:33:27.763Z,8.40
2023-01-15T23:36:59.052Z,8.00
2023-01-15T23:40:26.080Z,4.60
2023-01-15T23:44:10.573Z,5.30
2023-01-15T23:47:37.937Z,4.80
2023-01-15T23:51:05.207Z,7.70
2023-01-15T23:54:33.022Z,8.40
2023-01-15T23:58:00.424Z,6.40
